createdAt,value
2022-10-22T00:03:16.528Z,17.48
2022-10-22T00:08:18.220Z,15.40
2022-10-22T00:13:20.735Z,17.17
2022-10-22T00:18:22.306Z,22.85
2022-10-22T00:23:23.965Z,19.15
2022-10-22T00:28:25.748Z,18.98
2022-10-22T00:33:28.786Z,17.02
2022-10-22T00:38:30.429Z,16.27
2022-10-22T00:43:32.579Z,14.85
2022-10-22T00:48:34.240Z,14.85
2022-10-22T00:53:39.686Z,16.50
2022-10-22T00:58:47.664Z,14.95
2022-10-22T01:03:50.425Z,14.40
2022-10-22T01:09:01.412Z,16.45
2022-10-22T01:15:00.029Z,12.15
2022-10-22T01:20:24.170Z,16.33
2022-10-22T01:25:37.276Z,15.63
2022-10-22T01:30:40.792Z,16.10
2022-10-22T01:35:45.100Z,20.05
2022-10-22T01:40:47.688Z,14.45
2022-10-22T01:45:54.323Z,15.65
2022-10-22T01:50:58.597Z,14.73
2022-10-22T01:56:22.553Z,17.92
2022-10-22T02:01:33.200Z,13.68
2022-10-22T02:06:38.744Z,15.45
2022-10-22T02:11:41.866Z,14.93
2022-10-22T02:16:45.579Z,16.67
2022-10-22T02:21:47.269Z,16.52
2022-10-22T02:27:00.487Z,13.45
2022-10-22T02:32:05.912Z,16.10
2022-10-22T02:37:08.767Z,15.98
2022-10-22T02:42:12.202Z,14.90
2022-10-22T02:47:13.809Z,15.25
2022-10-22T02:52:15.380Z,13.00
2022-10-22T02:57:17.147Z,13.68
2022-10-22T03:02:18.750Z,15.82
2022-10-22T03:07:20.418Z,15.35
2022-10-22T03:12:22.122Z,14.95
2022-10-22T03:17:23.673Z,13.90
2022-10-22T03:22:29.075Z,14.27
2022-10-22T03:27:30.690Z,11.85
2022-10-22T03:32:32.286Z,17.58
2022-10-22T03:37:34.757Z,17.40
2022-10-22T03:42:36.313Z,15.00
2022-10-22T03:47:38.233Z,15.93
2022-10-22T03:52:40.825Z,16.38
2022-10-22T03:57:42.536Z,16.42
2022-10-22T04:02:44.251Z,18.10
2022-10-22T04:07:45.856Z,18.80
2022-10-22T04:12:48.782Z,16.83
2022-10-22T04:17:50.348Z,16.85
2022-10-22T04:22:51.984Z,16.60
2022-10-22T04:27:53.555Z,18.00
2022-10-22T04:32:55.152Z,21.20
2022-10-22T04:37:56.876Z,17.15
2022-10-22T04:42:58.907Z,16.75
2022-10-22T04:48:00.486Z,19.27
2022-10-22T04:53:02.028Z,15.77
2022-10-22T04:58:03.749Z,15.88
2022-10-22T05:03:05.837Z,18.02
2022-10-22T05:08:07.380Z,20.77
2022-10-22T05:13:08.927Z,17.60
2022-10-22T05:18:10.487Z,15.13
2022-10-22T05:23:12.045Z,17.58
2022-10-22T05:28:13.603Z,18.10
2022-10-22T05:33:15.174Z,14.98
2022-10-22T05:38:17.932Z,15.68
2022-10-22T05:43:19.536Z,18.45
2022-10-22T05:48:21.166Z,17.77
2022-10-22T05:53:22.930Z,17.67
2022-10-22T05:58:24.464Z,14.98
2022-10-22T06:03:26.037Z,18.90
2022-10-22T06:08:28.997Z,19.05
2022-10-22T06:13:32.820Z,15.55
2022-10-22T06:18:34.653Z,16.70
2022-10-22T06:23:37.534Z,16.08
2022-10-22T06:28:39.308Z,17.63
2022-10-22T06:33:43.848Z,18.27
2022-10-22T06:38:45.858Z,17.40
2022-10-22T06:43:47.541Z,19.55
2022-10-22T06:48:59.295Z,20.27
2022-10-22T06:54:00.917Z,21.25
2022-10-22T06:59:03.178Z,17.25
2022-10-22T07:04:05.720Z,18.70
2022-10-22T07:09:07.547Z,19.05
2022-10-22T07:14:10.164Z,18.67
2022-10-22T07:19:12.011Z,19.20
2022-10-22T07:24:13.615Z,17.58
2022-10-22T07:29:18.028Z,23.80
2022-10-22T07:39:22.107Z,22.83
2022-10-22T07:44:23.655Z,27.25
2022-10-22T07:49:25.284Z,26.83
2022-10-22T07:54:26.918Z,24.17
2022-10-22T07:59:28.533Z,20.77
2022-10-22T08:04:30.084Z,20.35
2022-10-22T08:09:32.014Z,18.20
2022-10-22T08:14:33.571Z,21.45
2022-10-22T08:19:35.510Z,21.48
2022-10-22T08:24:37.099Z,22.88
2022-10-22T08:29:38.893Z,23.50
2022-10-22T08:34:40.519Z,26.42
2022-10-22T08:39:42.067Z,29.20
2022-10-22T08:44:52.483Z,30.35
2022-10-22T08:49:55.552Z,30.35
2022-10-22T08:54:59.840Z,23.73
2022-10-22T09:00:15.341Z,21.70
2022-10-22T09:05:58.208Z,21.15
2022-10-22T09:11:32.616Z,24.27
2022-10-22T09:16:39.234Z,22.75
2022-10-22T09:22:05.382Z,20.52
2022-10-22T09:27:25.680Z,25.20
2022-10-22T09:32:28.560Z,19.08
2022-10-22T09:37:30.256Z,20.27
2022-10-22T09:42:33.649Z,19.60
2022-10-22T09:53:25.014Z,22.73
2022-10-22T09:58:27.494Z,19.88
2022-10-22T10:03:35.425Z,23.45
2022-10-22T10:08:37.117Z,21.55
2022-10-22T10:13:41.537Z,21.77
2022-10-22T10:19:04.849Z,25.83
2022-10-22T10:24:14.481Z,24.55
2022-10-22T10:29:45.984Z,24.17
2022-10-22T10:35:19.472Z,22.30
2022-10-22T10:40:42.654Z,24.90
2022-10-22T10:46:05.442Z,19.40
2022-10-22T10:51:37.995Z,21.77
2022-10-22T10:56:48.195Z,25.02
2022-10-22T11:02:40.566Z,26.30
2022-10-22T11:07:52.115Z,26.83
2022-10-22T11:13:03.349Z,23.17
2022-10-22T11:18:35.584Z,25.02
2022-10-22T11:23:44.228Z,25.23
2022-10-22T11:28:52.659Z,22.75
2022-10-22T11:34:33.394Z,26.33
2022-10-22T11:39:35.622Z,22.70
2022-10-22T11:45:02.251Z,22.65
2022-10-22T11:50:03.869Z,23.63
2022-10-22T11:55:31.729Z,20.40
2022-10-22T12:00:40.469Z,18.60
2022-10-22T12:05:42.083Z,20.90
2022-10-22T12:10:57.579Z,18.58
2022-10-22T12:16:03.755Z,18.75
2022-10-22T12:21:05.546Z,19.25
2022-10-22T12:26:23.266Z,16.25
2022-10-22T12:31:25.187Z,12.55
2022-10-22T12:36:28.716Z,12.02
2022-10-22T12:41:35.479Z,11.32
2022-10-22T12:46:37.059Z,10.73
2022-10-22T12:51:38.690Z,11.63
2022-10-22T12:56:40.519Z,11.35
2022-10-22T13:01:43.622Z,10.70
2022-10-22T13:07:04.957Z,12.60
2022-10-22T13:12:08.583Z,9.38
2022-10-22T13:17:23.896Z,12.60
2022-10-22T13:22:31.736Z,12.98
2022-10-22T13:27:33.398Z,12.00
2022-10-22T13:32:35.094Z,14.75
2022-10-22T13:37:38.723Z,14.55
2022-10-22T13:42:40.735Z,11.73
2022-10-22T13:47:46.433Z,13.20
2022-10-22T13:52:54.441Z,11.52
2022-10-22T13:58:14.148Z,12.18
2022-10-22T14:03:19.398Z,13.38
2022-10-22T14:08:23.132Z,12.55
2022-10-22T14:13:24.774Z,12.95
2022-10-22T14:18:31.484Z,14.48
2022-10-22T14:23:35.144Z,16.35
2022-10-22T14:28:41.364Z,15.35
2022-10-22T14:33:53.768Z,15.07
2022-10-22T14:38:55.377Z,16.42
2022-10-22T14:43:57.104Z,18.73
2022-10-22T14:48:58.664Z,14.93
2022-10-22T14:54:00.270Z,15.23
2022-10-22T14:59:01.830Z,16.35
2022-10-22T15:04:03.504Z,15.90
2022-10-22T15:09:05.172Z,16.02
2022-10-22T15:14:06.868Z,17.33
2022-10-22T15:19:08.485Z,14.50
2022-10-22T15:24:10.096Z,15.02
2022-10-22T15:29:12.181Z,13.32
2022-10-22T15:34:18.011Z,14.18
2022-10-22T15:39:19.584Z,13.77
2022-10-22T15:44:24.584Z,14.98
2022-10-22T15:49:28.140Z,14.18
2022-10-22T15:54:31.562Z,15.45
2022-10-22T15:59:33.190Z,13.52
2022-10-22T16:04:34.793Z,14.48
2022-10-22T16:09:36.364Z,17.13
2022-10-22T16:14:37.986Z,17.55
2022-10-22T16:19:39.542Z,17.83
2022-10-22T16:24:41.222Z,22.27
2022-10-22T16:29:42.778Z,23.50
2022-10-22T16:34:44.341Z,19.77
2022-10-22T16:39:46.231Z,25.85
2022-10-22T16:44:47.965Z,19.65
2022-10-22T16:49:49.544Z,27.20
2022-10-22T16:54:51.091Z,27.30
2022-10-22T16:59:52.836Z,28.70
2022-10-22T17:04:54.384Z,26.55
2022-10-22T17:09:55.936Z,21.67
2022-10-22T17:14:57.489Z,19.60
2022-10-22T17:19:59.273Z,21.38
2022-10-22T17:25:11.755Z,18.25
2022-10-22T17:30:20.943Z,19.77
2022-10-22T17:35:25.087Z,19.23
2022-10-22T17:40:27.100Z,18.52
2022-10-22T17:45:28.725Z,18.42
2022-10-22T17:50:30.434Z,15.35
2022-10-22T17:55:34.733Z,16.55
2022-10-22T18:00:36.376Z,16.92
2022-10-22T18:05:37.921Z,21.15
2022-10-22T18:10:40.438Z,18.10
2022-10-22T18:15:41.990Z,13.70
2022-10-22T18:20:48.981Z,16.58
2022-10-22T18:25:50.928Z,17.85
2022-10-22T18:30:52.574Z,16.90
2022-10-22T18:35:54.214Z,12.85
2022-10-22T18:40:55.767Z,14.63
2022-10-22T18:45:57.736Z,14.73
2022-10-22T18:51:04.463Z,15.07
2022-10-22T18:56:07.832Z,12.70
2022-10-22T19:01:21.195Z,17.70
2022-10-22T19:06:34.333Z,14.90
2022-10-22T19:11:38.422Z,23.55
2022-10-22T19:16:40.032Z,18.90
2022-10-22T19:21:41.690Z,18.10
2022-10-22T19:26:43.699Z,20.10
2022-10-22T19:31:45.959Z,24.52
2022-10-22T19:36:47.552Z,22.55
2022-10-22T19:41:49.274Z,20.20
2022-10-22T19:46:50.903Z,18.60
2022-10-22T19:51:52.682Z,15.93
2022-10-22T19:56:54.414Z,17.85
2022-10-22T20:01:56.095Z,16.27
2022-10-22T20:06:57.893Z,17.63
2022-10-22T20:11:59.524Z,17.73
2022-10-22T20:17:01.171Z,17.58
2022-10-22T20:22:02.925Z,24.42
2022-10-22T20:27:04.527Z,22.15
2022-10-22T20:32:08.097Z,19.60
2022-10-22T20:37:10.561Z,17.25
2022-10-22T20:42:12.107Z,19.17
2022-10-22T20:47:13.744Z,18.20
2022-10-22T20:52:15.317Z,18.15
2022-10-22T20:57:16.932Z,16.15
2022-10-22T21:02:18.583Z,17.65
2022-10-22T21:07:20.134Z,16.90
2022-10-22T21:12:21.696Z,16.30
2022-10-22T21:17:23.332Z,13.93
2022-10-22T21:22:24.860Z,14.38
2022-10-22T21:27:26.511Z,16.10
2022-10-22T21:32:28.426Z,15.23
2022-10-22T21:37:30.235Z,15.98
2022-10-22T21:42:31.816Z,14.70
2022-10-22T21:47:33.412Z,16.80
2022-10-22T21:52:34.999Z,12.70
2022-10-22T21:57:36.820Z,16.10
2022-10-22T22:02:38.462Z,14.63
2022-10-22T22:07:40.239Z,15.50
2022-10-22T22:12:42.005Z,18.65
2022-10-22T22:17:43.733Z,17.52
2022-10-22T22:22:45.297Z,14.73
2022-10-22T22:27:46.863Z,16.35
2022-10-22T22:32:48.430Z,14.93
2022-10-22T22:37:49.971Z,14.90
2022-10-22T22:42:51.521Z,14.70
2022-10-22T22:47:53.055Z,17.58
2022-10-22T22:52:54.593Z,14.70
2022-10-22T22:57:56.621Z,15.80
2022-10-22T23:02:58.217Z,18.40
2022-10-22T23:08:00.408Z,22.42
2022-10-22T23:13:02.008Z,21.33
2022-10-22T23:18:03.683Z,22.50
2022-10-22T23:23:08.112Z,19.13
2022-10-22T23:28:09.676Z,17.00
2022-10-22T23:33:11.742Z,15.18
2022-10-22T23:38:13.404Z,15.82
2022-10-22T23:43:14.973Z,13.63
2022-10-22T23:48:16.574Z,15.23
2022-10-22T23:53:18.219Z,15.80
2022-10-22T23:58:19.833Z,13.75
